^^
Saratoga-Weather Station Historical Data
Daily Summary for September 14, 2021 Units:  English    Metric   Both
Daily Weekly Monthly Yearly Custom
  High: Low: Average:
Temperature: 30 °F 17.2 °F 21.9 °F
Dew Point: 18 °F 13.5 °F 15.6 °F
Humidity: 87% 60% 76%
Wind Speed: 7mph 0mph 1.2mph
Wind Gust: 12mph - -
Wind- - ESE
Pressure: 30.6 in 30.6 in -
Precipitation: 0 in    
Historical Graphs
 
 
Tabular Data for September 14, 2021
Time Temperature Dew Point Pressure Wind Wind Speed Wind Gust Humidity Rainfall Rate (Hourly) solar
00:01 23.4 °F 14.7 °F 30.6 in ENE 6.9 mph 7 mph 69% 0 in 0 W/m2
00:06 23.5 °F 15.3 °F 30.6 in Calm   3 mph 70% 0 in 0 W/m2
00:11 23.4 °F 15.1 °F 30.6 in East 7 mph 7 mph 70% 0 in 0 W/m2
00:16 23.4 °F 15.1 °F 30.6 in SE 0.9 mph 2 mph 70% 0 in 0 W/m2
00:21 23.4 °F 15.1 °F 30.6 in ESE 6 mph 6 mph 70% 0 in 0 W/m2
00:26 23.4 °F 15.1 °F 30.6 in SSE 2 mph 4 mph 70% 0 in 0 W/m2
00:31 23.7 °F 15.4 °F 30.6 in ESE 0.9 mph 6 mph 70% 0 in 0 W/m2
00:36 23.9 °F 15.6 °F 30.6 in SE 4 mph 8 mph 70% 0 in 0 W/m2
00:41 24.1 °F 15.4 °F 30.6 in ENE 4.9 mph 12 mph 69% 0 in 0 W/m2
00:46 24.3 °F 15.6 °F 30.6 in SE 2 mph 4 mph 69% 0 in 0 W/m2
00:51 24.1 °F 15.8 °F 30.6 in ESE 2 mph 8 mph 70% 0 in 0 W/m2
00:56 23.9 °F 15.6 °F 30.6 in East 0.9 mph 4 mph 70% 0 in 0 W/m2
01:01 23.7 °F 15.4 °F 30.6 in ENE 2 mph 8 mph 70% 0 in 0 W/m2
01:06 23.7 °F 15.4 °F 30.6 in ESE 2 mph 3 mph 70% 0 in 0 W/m2
01:11 23.7 °F 15.6 °F 30.6 in East 2 mph 6 mph 71% 0 in 0 W/m2
01:16 23.7 °F 15.6 °F 30.6 in ESE 2.9 mph 3 mph 71% 0 in 0 W/m2
01:21 23.7 °F 15.6 °F 30.6 in Calm   6 mph 71% 0 in 0 W/m2
01:26 23.5 °F 15.4 °F 30.6 in East 2 mph 3 mph 71% 0 in 0 W/m2
01:31 23.5 °F 15.4 °F 30.6 in ESE 2 mph 3 mph 71% 0 in 0 W/m2
01:36 23.5 °F 15.4 °F 30.6 in East 6.9 mph 8 mph 71% 0 in 0 W/m2
01:41 23.5 °F 15.8 °F 30.6 in Calm   2 mph 72% 0 in 0 W/m2
01:46 23.5 °F 15.8 °F 30.6 in SE 2 mph 10 mph 72% 0 in 0 W/m2
01:51 23.5 °F 15.8 °F 30.6 in East 2 mph 2 mph 72% 0 in 0 W/m2
01:56 23.5 °F 15.8 °F 30.6 in ESE 0.9 mph 9 mph 72% 0 in 0 W/m2
02:01 23.4 °F 15.6 °F 30.6 in Calm   1 mph 72% 0 in 0 W/m2
02:06 23.2 °F 15.8 °F 30.6 in Calm   2 mph 73% 0 in 0 W/m2
02:11 22.8 °F 15.4 °F 30.6 in SE 4 mph 6 mph 73% 0 in 0 W/m2
02:16 22.8 °F 15.4 °F 30.6 in East 2 mph 3 mph 73% 0 in 0 W/m2
02:21 22.6 °F 15.6 °F 30.6 in Calm     74% 0 in 0 W/m2
02:26 22.6 °F 15.6 °F 30.6 in ESE 0.9 mph 2 mph 74% 0 in 0 W/m2
02:31 22.5 °F 15.4 °F 30.6 in ESE 0.9 mph 1 mph 74% 0 in 0 W/m2
02:36 22.3 °F 15.3 °F 30.6 in ESE 0.9 mph 2 mph 74% 0 in 0 W/m2
02:41 21.9 °F 15.3 °F 30.6 in ESE 2 mph 2 mph 75% 0 in 0 W/m2
02:46 21.7 °F 15.3 °F 30.6 in Calm   2 mph 76% 0 in 0 W/m2
02:52 21.7 °F 15.3 °F 30.6 in Calm     76% 0 in 0 W/m2
02:57 21.7 °F 15.3 °F 30.6 in Calm     76% 0 in 0 W/m2
03:02 21.6 °F 15.3 °F 30.6 in Calm   2 mph 76% 0 in 0 W/m2
03:07 21.2 °F 15.1 °F 30.6 in Calm     77% 0 in 0 W/m2
03:12 21 °F 14.9 °F 30.6 in Calm   1 mph 77% 0 in 0 W/m2
03:17 20.8 °F 15.1 °F 30.6 in Calm     78% 0 in 0 W/m2
03:22 20.7 °F 14.9 °F 30.6 in ESE 0.9 mph 1 mph 78% 0 in 0 W/m2
03:27 20.5 °F 15.1 °F 30.6 in Calm   2 mph 79% 0 in 0 W/m2
03:32 20.7 °F 15.3 °F 30.6 in Calm   1 mph 79% 0 in 0 W/m2
03:37 20.8 °F 15.4 °F 30.6 in Calm   2 mph 79% 0 in 0 W/m2
03:42 20.8 °F 15.4 °F 30.6 in Calm   1 mph 79% 0 in 0 W/m2
03:47 20.8 °F 15.4 °F 30.6 in Calm   1 mph 79% 0 in 0 W/m2
03:52 20.7 °F 15.3 °F 30.6 in ESE 0.9 mph 3 mph 79% 0 in 0 W/m2
03:57 20.8 °F 15.4 °F 30.6 in ESE 0.9 mph 2 mph 79% 0 in 0 W/m2
04:02 21 °F 15.6 °F 30.6 in ESE 0.9 mph 3 mph 79% 0 in 0 W/m2
04:07 21 °F 15.3 °F 30.6 in ESE 0.9 mph 2 mph 78% 0 in 0 W/m2
04:12 21 °F 15.6 °F 30.6 in ESE 0.9 mph 1 mph 79% 0 in 0 W/m2
04:17 20.8 °F 15.4 °F 30.6 in Calm   2 mph 79% 0 in 0 W/m2
04:22 20.8 °F 15.4 °F 30.6 in Calm     79% 0 in 0 W/m2
04:27 20.7 °F 15.3 °F 30.6 in ESE 0.9 mph 1 mph 79% 0 in 0 W/m2
04:32 20.7 °F 15.3 °F 30.6 in Calm   2 mph 79% 0 in 0 W/m2
04:37 20.7 °F 15.3 °F 30.6 in ESE 0.9 mph 1 mph 79% 0 in 0 W/m2
04:42 20.7 °F 15.3 °F 30.6 in ESE 2 mph 3 mph 79% 0 in 0 W/m2
04:47 20.7 °F 15.3 °F 30.6 in ESE 0.9 mph 1 mph 79% 0 in 0 W/m2
04:52 20.7 °F 15.3 °F 30.6 in Calm   3 mph 79% 0 in 0 W/m2
04:57 20.7 °F 15.3 °F 30.6 in ESE 0.9 mph 2 mph 79% 0 in 0 W/m2
05:02 20.8 °F 15.4 °F 30.6 in Calm   1 mph 79% 0 in 0 W/m2
05:07 20.8 °F 15.4 °F 30.6 in Calm   1 mph 79% 0 in 0 W/m2
05:12 20.8 °F 15.4 °F 30.6 in Calm   1 mph 79% 0 in 0 W/m2
05:17 20.8 °F 15.4 °F 30.6 in ESE 2 mph 2 mph 79% 0 in 0 W/m2
05:22 21 °F 15.3 °F 30.6 in ESE 0.9 mph 1 mph 78% 0 in 0 W/m2
05:27 21 °F 15.3 °F 30.6 in SE 0.9 mph 2 mph 78% 0 in 0 W/m2
05:32 21.2 °F 15.4 °F 30.6 in Calm   2 mph 78% 0 in 0 W/m2
05:37 21 °F 15.3 °F 30.6 in East 2.9 mph 4 mph 78% 0 in 0 W/m2
05:42 21 °F 15.3 °F 30.6 in East 0.9 mph 3 mph 78% 0 in 0 W/m2
05:47 21 °F 15.3 °F 30.6 in East 0.9 mph 2 mph 78% 0 in 0 W/m2
05:52 21 °F 15.3 °F 30.6 in Calm   2 mph 78% 0 in 0 W/m2
05:57 20.8 °F 15.1 °F 30.6 in ESE 0.9 mph 3 mph 78% 0 in 0 W/m2
06:02 20.7 °F 14.9 °F 30.6 in Calm     78% 0 in 0 W/m2
06:07 20.5 °F 15.1 °F 30.6 in Calm   3 mph 79% 0 in 0 W/m2
06:12 20.3 °F 14.9 °F 30.6 in ESE 0.9 mph 1 mph 79% 0 in 0 W/m2
06:17 19.9 °F 14.5 °F 30.6 in Calm   2 mph 79% 0 in 0 W/m2
06:22 19.9 °F 14.7 °F 30.6 in Calm   1 mph 80% 0 in 0 W/m2
06:27 19.8 °F 14.5 °F 30.6 in Calm   2 mph 80% 0 in 0 W/m2
06:32 19.4 °F 14.2 °F 30.6 in Calm     80% 0 in 0 W/m2
06:37 19 °F 13.8 °F 30.6 in Calm   2 mph 80% 0 in 0 W/m2
06:42 18.9 °F 14 °F 30.6 in Calm   2 mph 81% 0 in 0 W/m2
06:47 18.5 °F 13.6 °F 30.6 in Calm   2 mph 81% 0 in 0 W/m2
06:52 18.1 °F 13.6 °F 30.6 in Calm     82% 0 in 0 W/m2
06:57 18 °F 13.6 °F 30.6 in Calm   2 mph 83% 0 in 0 W/m2
07:02 18 °F 13.6 °F 30.6 in Calm     83% 0 in 0 W/m2
07:07 17.8 °F 13.8 °F 30.6 in Calm     84% 0 in 0 W/m2
07:12 17.6 °F 13.6 °F 30.6 in Calm     84% 0 in 0 W/m2
07:17 17.4 °F 13.6 °F 30.6 in Calm     85% 0 in 0 W/m2
07:22 17.2 °F 13.5 °F 30.6 in Calm     85% 0 in 0 W/m2
07:27 17.2 °F 13.8 °F 30.6 in Calm     86% 0 in 0 W/m2
07:32 17.2 °F 13.8 °F 30.6 in Calm     86% 0 in 0 W/m2
07:37 17.2 °F 13.8 °F 30.6 in Calm     86% 0 in 0 W/m2
07:42 17.4 °F 14.2 °F 30.6 in Calm     87% 0 in 5 W/m2
07:47 17.4 °F 14.2 °F 30.6 in Calm     87% 0 in 5 W/m2
07:52 17.4 °F 14.2 °F 30.6 in Calm     87% 0 in 9 W/m2
07:57 17.4 °F 14.2 °F 30.6 in Calm     87% 0 in 12 W/m2
08:02 17.6 °F 14.4 °F 30.6 in Calm     87% 0 in 14 W/m2
08:07 17.8 °F 14.5 °F 30.6 in Calm     87% 0 in 18 W/m2
08:12 18.1 °F 14.9 °F 30.6 in Calm     87% 0 in 21 W/m2
08:17 18.3 °F 15.1 °F 30.6 in Calm     87% 0 in 26 W/m2
08:22 18.5 °F 15.1 °F 30.6 in Calm   1 mph 86% 0 in 30 W/m2
08:27 18.7 °F 15.3 °F 30.6 in Calm     86% 0 in 37 W/m2
08:32 19 °F 15.6 °F 30.6 in Calm     86% 0 in 54 W/m2
08:37 19.2 °F 15.8 °F 30.6 in Calm     86% 0 in 62 W/m2
08:42 19.8 °F 16 °F 30.6 in Calm   1 mph 85% 0 in 67 W/m2
08:47 19.9 °F 16.2 °F 30.6 in SE 0.9 mph 2 mph 85% 0 in 69 W/m2
08:53 20.5 °F 16.3 °F 30.6 in Calm   2 mph 84% 0 in 40 W/m2
08:58 20.7 °F 16.3 °F 30.6 in SE 2 mph 3 mph 83% 0 in 35 W/m2
09:03 21.2 °F 16.5 °F 30.6 in ESE 2 mph 3 mph 82% 0 in 32 W/m2
09:08 21.7 °F 16.5 °F 30.6 in Calm   3 mph 80% 0 in 26 W/m2
09:13 21.9 °F 16.3 °F 30.6 in East 0.9 mph 3 mph 79% 0 in 26 W/m2
09:18 22.1 °F 16.3 °F 30.6 in ESE 0.9 mph 2 mph 78% 0 in 28 W/m2
09:23 22.3 °F 16.5 °F 30.6 in ESE 2 mph 3 mph 78% 0 in 81 W/m2
09:28 22.6 °F 16.9 °F 30.6 in ESE 0.9 mph 2 mph 78% 0 in 199 W/m2
09:33 23.4 °F 17.2 °F 30.6 in ESE 0.9 mph 3 mph 77% 0 in 221 W/m2
09:38 24.3 °F 17.8 °F 30.6 in ESE 2 mph 3 mph 76% 0 in 243 W/m2
09:43 24.8 °F 17.8 °F 30.6 in East 2 mph 3 mph 74% 0 in 243 W/m2
09:48 25.2 °F 17.8 °F 30.6 in East 2 mph 3 mph 73% 0 in 211 W/m2
09:53 25.5 °F 17.8 °F 30.6 in East 0.9 mph 5 mph 72% 0 in 200 W/m2
09:58 26.1 °F 18 °F 30.6 in ESE 0.9 mph 3 mph 71% 0 in 243 W/m2
10:03 26.2 °F 17.4 °F 30.6 in East 2 mph 4 mph 69% 0 in 244 W/m2
10:08 26.8 °F 18 °F 30.6 in ENE 2 mph 4 mph 69% 0 in 271 W/m2
10:13 27 °F 17.8 °F 30.6 in SE 2 mph 9 mph 68% 0 in 227 W/m2
10:18 27.3 °F 17.8 °F 30.6 in East 2 mph 7 mph 67% 0 in 255 W/m2
10:23 27.5 °F 18 °F 30.6 in East 2.9 mph 9 mph 67% 0 in 178 W/m2
10:28 27.7 °F 17.8 °F 30.6 in East 2.9 mph 6 mph 66% 0 in 199 W/m2
10:33 27.9 °F 18 °F 30.6 in East 2.9 mph 7 mph 66% 0 in 148 W/m2
10:38 28 °F 17.8 °F 30.6 in ENE 2 mph 7 mph 65% 0 in 93 W/m2
10:43 28.2 °F 17.6 °F 30.6 in East 2 mph 4 mph 64% 0 in 86 W/m2
10:48 28.6 °F 17.6 °F 30.6 in ESE 6 mph 8 mph 63% 0 in 63 W/m2
10:53 28.8 °F 17.4 °F 30.6 in ESE 6 mph 9 mph 62% 0 in 123 W/m2
10:58 28.9 °F 17.6 °F 30.6 in ESE 0.9 mph 4 mph 62% 0 in 128 W/m2
11:03 29.1 °F 17.4 °F 30.6 in East 4 mph 7 mph 61% 0 in 221 W/m2
11:08 29.5 °F 17.8 °F 30.6 in East 2.9 mph 7 mph 61% 0 in 132 W/m2
11:13 29.7 °F 17.8 °F 30.6 in East 2.9 mph 6 mph 61% 0 in 128 W/m2
11:18 30 °F 17.8 °F 30.6 in ESE 2 mph 6 mph 60% 0 in 74 W/m2
Juneau County Weather
Compliments of Weather Underground - 4 mb